Time;durP1;ratioP1;P1;durP2;ratioP2;P2;SDS_P1;SDS_P2;PMS_P1;PMS_P2;Temp;Humidity;BMP_temperature;BMP_pressure;BME280_temperature;BME280_humidity;BME280_pressure;Samples;Min_cycle;Max_cycle;Signal;HPM_P1;HPM_P2
2022/11/20 00:01:31;;;;;;;11.95;5.35;;;;;;;4.29;67.20;92102.75;2071541;69;20144;-77
2022/11/20 00:03:57;;;;;;;9.93;6.28;;;;;;;4.27;67.71;92110.97;2071760;69;20144;-76
2022/11/20 00:06:25;;;;;;;10.80;6.00;;;;;;;4.32;67.69;92112.00;2071840;69;20648;-77
2022/11/20 00:08:53;;;;;;;11.15;6.20;;;;;;;4.30;67.20;92101.44;2068350;69;20151;-77
2022/11/20 00:11:21;;;;;;;10.35;5.60;;;;;;;4.30;68.26;92118.16;2071619;69;20155;-77
2022/11/20 00:13:50;;;;;;;10.23;5.65;;;;;;;4.30;68.05;92109.06;2071853;69;20160;-76
2022/11/20 00:16:21;;;;;;;8.07;4.80;;;;;;;4.41;67.31;92114.06;2068263;69;20502;-75
2022/11/20 00:18:47;;;;;;;10.60;6.07;;;;;;;4.38;68.06;92109.66;2071791;69;20152;-76
2022/11/20 00:21:16;;;;;;;9.15;5.63;;;;;;;3.86;69.85;92115.56;2071643;69;20172;-76
2022/11/20 00:23:43;;;;;;;9.75;5.90;;;;;;;4.20;68.32;92113.88;2071883;69;20168;-76
2022/11/20 00:26:11;;;;;;;13.30;5.88;;;;;;;4.26;69.11;92112.31;2066571;69;20215;-75
2022/11/20 00:28:36;;;;;;;10.80;6.05;;;;;;;4.33;68.66;92119.78;2065053;69;20232;-77
2022/11/20 00:31:04;;;;;;;9.10;5.22;;;;;;;4.34;68.07;92115.66;2064777;69;20156;-77
2022/11/20 00:33:30;;;;;;;8.40;5.10;;;;;;;4.49;67.88;92122.28;2064980;69;20264;-77
2022/11/20 00:36:05;;;;;;;11.60;5.55;;;;;;;4.49;67.97;92125.06;2064969;69;20144;-76
2022/11/20 00:38:32;;;;;;;11.68;5.68;;;;;;;4.43;67.63;92124.63;2064614;69;20263;-76
2022/11/20 00:41:01;;;;;;;9.95;5.82;;;;;;;4.45;67.42;92125.53;2064410;69;20183;-76
2022/11/20 00:43:27;;;;;;;9.90;5.85;;;;;;;4.08;69.36;92130.44;2064785;69;20149;-75
2022/11/20 00:45:57;;;;;;;11.82;5.60;;;;;;;4.19;68.66;92129.16;2064911;69;20228;-75
2022/11/20 00:48:23;;;;;;;11.18;5.72;;;;;;;4.31;68.33;92135.63;2064994;69;20208;-75
2022/11/20 00:50:48;;;;;;;8.98;5.50;;;;;;;4.39;68.53;92135.47;2065069;69;20148;-77
2022/11/20 00:53:14;;;;;;;10.70;6.03;;;;;;;4.39;68.66;92139.00;2064884;69;20235;-77
2022/11/20 00:55:39;;;;;;;10.18;5.40;;;;;;;4.36;69.44;92133.88;2064885;69;20259;-78
2022/11/20 00:58:05;;;;;;;11.20;5.60;;;;;;;4.37;68.60;92138.84;2064915;69;20223;-78
2022/11/20 01:00:34;;;;;;;10.43;5.68;;;;;;;4.38;68.86;92143.09;2064959;69;20369;-77
2022/11/20 01:02:59;;;;;;;10.38;5.18;;;;;;;4.40;68.28;92139.72;2064659;69;20152;-79
2022/11/20 01:05:25;;;;;;;10.27;5.25;;;;;;;4.43;68.24;92144.13;2064366;69;20157;-77
2022/11/20 01:07:50;;;;;;;9.75;5.13;;;;;;;4.49;68.28;92141.78;2064947;69;20157;-78
2022/11/20 01:10:17;;;;;;;9.48;5.00;;;;;;;4.48;68.25;92141.06;2064834;69;20145;-77
2022/11/20 01:12:42;;;;;;;11.05;5.70;;;;;;;4.03;70.80;92146.13;2064424;69;20232;-75
2022/11/20 01:15:08;;;;;;;14.02;5.68;;;;;;;3.92;71.52;92143.13;2064855;69;20228;-75
2022/11/20 01:17:34;;;;;;;8.45;5.30;;;;;;;4.12;71.02;92144.66;2064765;69;20157;-76
2022/11/20 01:19:59;;;;;;;11.32;5.53;;;;;;;4.25;69.75;92149.81;2064944;69;20145;-75
2022/11/20 01:22:25;;;;;;;10.45;5.50;;;;;;;4.31;69.44;92150.28;2064699;69;20152;-75
2022/11/20 01:24:53;;;;;;;9.45;5.57;;;;;;;4.28;70.07;92147.94;2064725;69;20153;-77
2022/11/20 01:27:18;;;;;;;13.55;4.90;;;;;;;4.37;69.79;92138.13;2064436;69;20180;-77
2022/11/20 01:29:44;;;;;;;9.10;5.28;;;;;;;4.25;70.21;92147.03;2064583;69;20560;-76
2022/11/20 01:32:09;;;;;;;8.45;5.10;;;;;;;4.27;69.71;92143.69;2064731;69;20152;-76
2022/11/20 01:34:35;;;;;;;11.15;5.22;;;;;;;4.29;69.45;92155.69;2064473;69;20149;-77
2022/11/20 01:37:00;;;;;;;9.32;5.40;;;;;;;4.32;69.37;92151.75;2065118;69;20216;-77
2022/11/20 01:39:26;;;;;;;7.47;4.95;;;;;;;4.18;70.07;92150.69;2064440;69;20132;-77
2022/11/20 01:44:55;;;;;;;10.60;5.80;;;;;;;4.20;69.84;92152.88;2064702;69;20137;-76
2022/11/20 01:47:32;;;;;;;8.10;5.30;;;;;;;4.25;70.33;92154.66;2064455;69;20648;-76
2022/11/20 01:50:04;;;;;;;9.85;5.45;;;;;;;4.27;69.77;92147.19;2064373;69;20241;-78
2022/11/20 01:52:39;;;;;;;8.75;5.85;;;;;;;4.34;69.79;92143.53;2064621;69;20228;-75
2022/11/20 01:55:28;;;;;;;9.27;5.22;;;;;;;4.10;70.24;92146.56;2064795;69;20141;-78
2022/11/20 01:57:58;;;;;;;12.23;7.43;;;;;;;4.14;70.42;92147.59;2064776;69;20125;-78
2022/11/20 02:00:24;;;;;;;9.73;6.10;;;;;;;4.24;70.49;92142.78;2064964;69;20177;-74
2022/11/20 02:02:58;;;;;;;10.05;5.50;;;;;;;4.28;70.01;92142.34;2064513;69;20210;-74
2022/11/20 02:05:38;;;;;;;7.57;5.28;;;;;;;4.33;69.82;92141.34;2064381;69;20300;-76
2022/11/20 02:08:05;;;;;;;8.80;5.60;;;;;;;4.33;70.24;92146.91;2069607;69;20129;-73
2022/11/20 02:10:31;;;;;;;9.45;5.47;;;;;;;4.30;69.54;92136.91;2070878;69;20235;-74
2022/11/20 02:15:46;;;;;;;10.15;5.70;;;;;;;4.42;69.69;92132.25;2066073;69;20173;-75
2022/11/20 02:18:16;;;;;;;9.77;6.20;;;;;;;4.24;69.87;92139.25;2066144;69;20171;-78
2022/11/20 02:20:44;;;;;;;10.52;6.25;;;;;;;4.34;69.75;92129.59;2065243;69;20510;-76
2022/11/20 02:23:25;;;;;;;10.75;6.25;;;;;;;4.02;71.69;92141.13;2064871;69;20589;-75
2022/11/20 02:25:52;;;;;;;9.35;5.65;;;;;;;3.96;72.05;92149.75;2068891;69;20160;-75
2022/11/20 02:28:19;;;;;;;10.43;5.70;;;;;;;3.96;72.32;92146.22;2071454;69;20179;-77
2022/11/20 02:30:45;;;;;;;9.73;5.22;;;;;;;4.23;70.96;92149.69;2068036;69;20171;-75
2022/11/20 02:33:10;;;;;;;8.52;4.95;;;;;;;4.24;71.04;92142.78;2071266;69;20144;-74
2022/11/20 02:35:41;;;;;;;14.73;5.25;;;;;;;4.24;70.87;92142.06;2071406;69;20151;-75
2022/11/20 02:38:07;;;;;;;8.80;5.28;;;;;;;4.29;69.42;92136.19;2071263;69;20225;-76
2022/11/20 02:40:33;;;;;;;8.98;5.07;;;;;;;4.25;70.58;92135.88;2071302;69;20217;-77
2022/11/20 02:42:59;;;;;;;9.40;5.72;;;;;;;4.24;70.21;92130.91;2067958;69;20164;-75
2022/11/20 02:45:25;;;;;;;11.32;7.28;;;;;;;4.28;70.22;92137.50;2071390;69;20584;-75
2022/11/20 02:47:52;;;;;;;10.10;6.25;;;;;;;4.34;70.33;92134.44;2071229;69;20198;-74
2022/11/20 02:50:18;;;;;;;11.60;6.75;;;;;;;4.17;70.68;92132.53;2071044;69;20184;-75
2022/11/20 02:52:43;;;;;;;11.70;7.60;;;;;;;4.20;71.26;92130.59;2067778;69;20267;-76
2022/11/20 02:55:10;;;;;;;11.13;7.10;;;;;;;4.29;70.58;92135.47;2067744;69;20227;-77
2022/11/20 02:57:36;;;;;;;11.57;7.38;;;;;;;4.32;70.99;92132.25;2067986;69;20148;-77
2022/11/20 03:00:02;;;;;;;11.88;7.15;;;;;;;4.29;70.67;92129.88;2070854;69;20263;-78
2022/11/20 03:02:36;;;;;;;11.43;7.10;;;;;;;4.26;71.49;92126.22;2071388;69;20524;-78
2022/11/20 03:05:02;;;;;;;11.07;7.05;;;;;;;4.33;70.62;92124.63;2067879;69;20149;-74
2022/11/20 03:07:28;;;;;;;11.00;6.88;;;;;;;4.40;70.29;92128.56;2071184;69;20155;-77
2022/11/20 03:09:54;;;;;;;12.23;6.65;;;;;;;4.39;70.43;92127.84;2067756;69;20151;-77
2022/11/20 03:12:19;;;;;;;12.95;6.90;;;;;;;4.38;70.31;92123.59;2070795;69;20150;-77
2022/11/20 03:14:45;;;;;;;9.07;6.20;;;;;;;4.20;71.04;92128.56;2071435;69;20678;-77
2022/11/20 03:17:11;;;;;;;9.90;5.50;;;;;;;4.33;71.15;92121.81;2071438;69;20653;-77
2022/11/20 03:19:36;;;;;;;10.63;6.07;;;;;;;4.25;71.24;92135.16;2071128;69;20228;-76
2022/11/20 03:22:02;;;;;;;10.02;5.50;;;;;;;4.27;71.29;92133.28;2071042;69;20492;-76
2022/11/20 03:24:28;;;;;;;12.02;5.68;;;;;;;4.19;71.55;92127.09;2071169;69;20230;-78
2022/11/20 03:26:55;;;;;;;10.30;5.68;;;;;;;4.14;70.96;92128.09;2071108;69;20144;-77
2022/11/20 03:29:20;;;;;;;11.07;5.28;;;;;;;4.00;71.41;92133.34;2067702;69;20607;-77
2022/11/20 03:31:46;;;;;;;10.82;5.25;;;;;;;4.11;71.17;92125.75;2070964;69;20148;-77
2022/11/20 03:34:12;;;;;;;8.60;4.82;;;;;;;4.10;71.39;92136.16;2071343;69;20222;-77
2022/11/20 03:36:39;;;;;;;7.93;5.32;;;;;;;4.12;71.63;92138.34;2067746;69;20206;-78
2022/11/20 03:39:06;;;;;;;9.98;5.78;;;;;;;4.14;71.42;92128.09;2071103;69;20142;-77
2022/11/20 03:41:37;;;;;;;8.65;5.28;;;;;;;4.27;71.22;92133.28;2071116;69;20182;-79
2022/11/20 03:44:07;;;;;;;8.48;4.97;;;;;;;4.25;71.01;92127.53;2071222;69;20195;-78
2022/11/20 03:46:32;;;;;;;8.07;4.88;;;;;;;4.28;70.31;92126.38;2071136;69;20232;-79
2022/11/20 03:48:58;;;;;;;10.13;4.95;;;;;;;4.23;70.84;92130.19;2071267;69;20596;-77
2022/11/20 03:51:29;;;;;;;9.25;5.20;;;;;;;4.02;71.71;92127.19;2067837;69;20164;-77
2022/11/20 03:53:58;;;;;;;9.52;5.25;;;;;;;3.92;73.04;92135.53;2067901;69;20243;-76
2022/11/20 03:56:29;;;;;;;15.57;6.75;;;;;;;3.98;71.69;92140.81;2071026;69;20225;-76
2022/11/20 03:58:54;;;;;;;11.98;5.95;;;;;;;4.11;71.59;92142.47;2071061;69;20218;-77
2022/11/20 04:01:26;;;;;;;12.55;6.47;;;;;;;4.19;71.13;92143.06;2067797;69;20160;-78
2022/11/20 04:03:54;;;;;;;11.70;5.90;;;;;;;4.10;71.19;92152.13;2071120;69;20144;-77
2022/11/20 04:06:30;;;;;;;11.73;6.60;;;;;;;3.86;72.22;92151.03;2071164;69;20139;-77
2022/11/20 04:08:57;;;;;;;9.25;5.22;;;;;;;3.97;72.97;92156.78;2070672;69;20375;-77
2022/11/20 04:11:32;;;;;;;12.27;5.50;;;;;;;4.07;72.22;92154.75;2071285;69;20179;-77
2022/11/20 04:14:04;;;;;;;10.43;5.22;;;;;;;4.19;71.88;92157.72;2071728;69;20240;-77
2022/11/20 04:16:32;;;;;;;11.43;5.35;;;;;;;4.17;72.26;92156.84;2071484;69;20144;-77
2022/11/20 04:19:00;;;;;;;10.85;6.05;;;;;;;4.18;72.09;92155.53;2071396;69;20175;-76
2022/11/20 04:21:26;;;;;;;11.00;5.25;;;;;;;4.23;71.29;92149.69;2071450;69;20171;-76
2022/11/20 04:23:57;;;;;;;8.25;5.38;;;;;;;4.15;71.79;92151.13;2071282;69;20577;-77
2022/11/20 04:26:25;;;;;;;8.30;5.15;;;;;;;4.22;71.29;92145.44;2071458;69;20190;-78
2022/11/20 04:28:51;;;;;;;9.65;5.60;;;;;;;4.14;72.39;92150.38;2071480;69;20160;-77
2022/11/20 04:31:20;;;;;;;8.82;5.20;;;;;;;4.23;72.00;92146.91;2065237;69;20603;-77
2022/11/20 04:33:46;;;;;;;9.05;5.13;;;;;;;4.20;72.30;92142.47;2071204;69;20156;-78
2022/11/20 04:36:14;;;;;;;8.75;5.25;;;;;;;4.26;71.82;92142.19;2068117;69;20128;-76
2022/11/20 04:38:40;;;;;;;8.88;5.07;;;;;;;4.33;71.94;92149.69;2071401;69;20561;-76
2022/11/20 04:41:08;;;;;;;12.63;5.20;;;;;;;4.05;72.95;92145.53;2071583;69;20147;-77
2022/11/20 04:43:34;;;;;;;9.75;5.63;;;;;;;4.05;72.96;92146.25;2071631;69;20199;-78
2022/11/20 04:46:00;;;;;;;8.88;5.50;;;;;;;4.10;72.41;92141.72;2071287;69;20286;-77
2022/11/20 04:48:28;;;;;;;10.25;5.82;;;;;;;4.14;71.81;92144.81;2071745;69;20164;-77
2022/11/20 04:50:54;;;;;;;10.82;5.72;;;;;;;4.12;72.32;92149.50;2071503;69;20178;-76
2022/11/20 04:53:21;;;;;;;11.85;5.82;;;;;;;4.14;72.16;92150.38;2071603;69;20140;-77
2022/11/20 04:55:47;;;;;;;10.60;5.30;;;;;;;4.16;71.38;92155.38;2071559;69;20156;-79
2022/11/20 04:58:13;;;;;;;11.18;5.57;;;;;;;4.18;71.85;92144.41;2071513;69;20582;-77
2022/11/20 05:00:40;;;;;;;10.88;5.78;;;;;;;4.18;71.66;92150.69;2071556;69;20147;-77
2022/11/20 05:03:06;;;;;;;9.07;5.60;;;;;;;4.18;71.70;92147.19;2071532;69;20144;-77
2022/11/20 05:05:34;;;;;;;9.25;5.07;;;;;;;4.16;72.20;92149.81;2071436;69;20156;-76
2022/11/20 05:08:00;;;;;;;11.40;5.80;;;;;;;4.22;72.65;92151.00;2071560;69;20160;-76
2022/11/20 05:10:26;;;;;;;13.60;5.30;;;;;;;4.20;72.20;92152.88;2068234;69;20155;-76
2022/11/20 05:12:52;;;;;;;10.73;5.88;;;;;;;4.15;72.39;92157.44;2071578;69;20205;-78
2022/11/20 05:15:18;;;;;;;9.70;5.40;;;;;;;4.34;71.59;92162.31;2068315;69;20151;-76
2022/11/20 05:17:51;;;;;;;15.57;8.82;;;;;;;4.37;71.23;92157.63;2071319;69;20172;-76
2022/11/20 05:20:18;;;;;;;11.32;6.30;;;;;;;4.34;71.03;92160.25;2071610;69;20616;-77
2022/11/20 05:22:44;;;;;;;13.75;6.22;;;;;;;4.08;72.75;92163.88;2071251;69;20137;-77
2022/11/20 05:25:11;;;;;;;11.05;5.50;;;;;;;4.19;72.37;92160.53;2071444;69;20148;-77
2022/11/20 05:27:37;;;;;;;9.95;6.03;;;;;;;4.19;72.11;92157.72;2071614;69;20635;-77
2022/11/20 05:30:04;;;;;;;10.68;5.22;;;;;;;4.12;73.24;92166.94;2071501;69;20199;-77
2022/11/20 05:32:29;;;;;;;11.32;5.85;;;;;;;4.14;72.52;92161.53;2071396;69;20144;-77
2022/11/20 05:34:55;;;;;;;9.88;5.20;;;;;;;4.28;71.92;92170.22;2071457;69;20144;-77
2022/11/20 05:37:20;;;;;;;8.48;5.25;;;;;;;4.27;72.12;92172.28;2071338;69;20599;-78
2022/11/20 05:39:46;;;;;;;10.77;5.57;;;;;;;4.28;71.48;92173.75;2071451;69;20244;-77
2022/11/20 05:42:31;;;;;;;9.07;5.72;;;;;;;4.30;72.22;92162.72;2067983;69;20152;-76
2022/11/20 05:44:58;;;;;;;11.68;5.78;;;;;;;4.31;72.04;92172.59;2071483;69;20139;-75
2022/11/20 05:47:23;;;;;;;9.07;5.30;;;;;;;4.28;71.69;92165.38;2071376;69;20152;-76
2022/11/20 05:49:49;;;;;;;10.68;5.85;;;;;;;4.38;71.87;92170.25;2071348;69;20151;-75
2022/11/20 05:52:14;;;;;;;10.32;5.50;;;;;;;4.30;71.72;92175.94;2068156;69;20527;-76
2022/11/20 05:54:40;;;;;;;10.32;6.40;;;;;;;4.25;72.54;92168.59;2071395;69;20488;-76
2022/11/20 05:57:05;;;;;;;11.05;5.53;;;;;;;4.30;72.37;92173.16;2071382;69;20180;-77
2022/11/20 05:59:31;;;;;;;9.15;5.70;;;;;;;4.36;71.30;92175.69;2071347;69;20319;-78
2022/11/20 06:01:58;;;;;;;10.48;5.78;;;;;;;4.36;71.75;92176.41;2071352;69;20527;-75
2022/11/20 06:04:23;;;;;;;9.63;5.55;;;;;;;4.41;71.15;92178.16;2071448;69;20209;-78
2022/11/20 06:06:49;;;;;;;11.50;6.07;;;;;;;4.42;71.11;92181.69;2071585;69;20239;-77
2022/11/20 06:09:14;;;;;;;18.95;8.45;;;;;;;4.02;73.61;92188.47;2071605;69;20141;-78
2022/11/20 06:11:40;;;;;;;18.60;9.02;;;;;;;4.31;72.12;92185.78;2071662;69;20168;-78
2022/11/20 06:14:06;;;;;;;28.60;14.60;;;;;;;4.37;72.07;92186.22;2071431;69;20595;-78
2022/11/20 06:16:32;;;;;;;35.20;16.63;;;;;;;4.40;71.37;92199.00;2071264;69;20213;-76
2022/11/20 06:18:58;;;;;;;28.27;14.52;;;;;;;4.32;71.12;92190.75;2071408;69;20597;-76
2022/11/20 06:21:23;;;;;;;42.42;19.60;;;;;;;4.34;71.78;92188.13;2071376;69;20164;-77
2022/11/20 06:23:51;;;;;;;37.15;17.60;;;;;;;4.43;71.89;92186.66;2071462;69;20179;-76
2022/11/20 06:26:19;;;;;;;35.42;17.02;;;;;;;4.33;72.34;92183.13;2071338;69;20143;-77
2022/11/20 06:28:45;;;;;;;36.85;17.38;;;;;;;4.21;72.23;92180.16;2068072;69;20290;-78
2022/11/20 06:31:13;;;;;;;43.22;21.45;;;;;;;4.16;73.06;92183.97;2071313;69;20141;-77
2022/11/20 06:33:39;;;;;;;45.42;20.85;;;;;;;4.27;72.61;92185.47;2071354;69;20218;-78
2022/11/20 06:36:05;;;;;;;43.78;21.25;;;;;;;4.18;72.75;92191.75;2071624;69;20227;-76
2022/11/20 06:38:31;;;;;;;33.45;17.98;;;;;;;4.33;72.18;92194.28;2071403;69;20233;-76
2022/11/20 06:40:57;;;;;;;30.50;15.02;;;;;;;4.27;71.74;92188.25;2067994;69;20153;-78
2022/11/20 06:43:23;;;;;;;30.42;16.15;;;;;;;4.19;72.07;92196.00;2068022;69;20516;-78
2022/11/20 06:45:53;;;;;;;28.73;15.73;;;;;;;4.20;72.71;92198.19;2071363;69;20148;-79
2022/11/20 06:48:18;;;;;;;29.10;15.30;;;;;;;4.22;72.24;92203.22;2071236;69;20257;-76
2022/11/20 06:50:44;;;;;;;30.67;15.02;;;;;;;4.25;72.23;92196.44;2071239;69;20179;-76
2022/11/20 06:53:10;;;;;;;33.65;16.25;;;;;;;4.24;72.11;92208.91;2068006;69;20517;-76
2022/11/20 06:55:36;;;;;;;30.17;15.80;;;;;;;4.23;72.41;92208.19;2071246;69;20148;-76
2022/11/20 06:58:01;;;;;;;27.45;15.10;;;;;;;4.02;73.57;92221.88;2071409;69;20136;-76
2022/11/20 07:00:27;;;;;;;21.65;12.23;;;;;;;4.02;73.36;92207.97;2071506;69;20156;-76
2022/11/20 07:02:52;;;;;;;24.30;12.90;;;;;;;4.25;72.69;92216.69;2071190;69;20142;-77
2022/11/20 07:05:18;;;;;;;23.60;13.15;;;;;;;4.27;73.25;92219.66;2071292;69;20135;-78
2022/11/20 07:07:43;;;;;;;27.35;14.93;;;;;;;4.24;72.97;92223.59;2071381;69;20160;-76
2022/11/20 07:10:09;;;;;;;21.67;12.27;;;;;;;4.12;73.95;92227.50;2071195;69;20160;-76
2022/11/20 07:12:35;;;;;;;29.42;13.05;;;;;;;4.35;72.78;92236.22;2071421;69;20140;-76
2022/11/20 07:15:01;;;;;;;22.42;12.82;;;;;;;4.33;73.21;92228.47;2071376;69;20176;-77
2022/11/20 07:17:26;;;;;;;22.17;13.02;;;;;;;4.40;73.26;92237.25;2071543;69;20152;-78
2022/11/20 07:19:53;;;;;;;23.02;14.13;;;;;;;4.49;72.76;92228.19;2071673;69;20144;-76
2022/11/20 07:22:21;;;;;;;23.00;14.25;;;;;;;4.61;71.99;92231.16;2078209;69;20101;-76
2022/11/20 07:24:48;;;;;;;26.65;15.60;;;;;;;4.55;72.08;92234.25;2070415;69;20152;-79
2022/11/20 07:27:13;;;;;;;29.90;16.48;;;;;;;4.63;71.94;92243.22;2072699;69;20663;-78
2022/11/20 07:29:39;;;;;;;28.45;15.27;;;;;;;4.67;72.11;92235.13;2072023;69;20239;-78
2022/11/20 07:32:04;;;;;;;28.08;15.63;;;;;;;4.68;72.56;92238.69;2071365;69;20143;-78
2022/11/20 07:34:30;;;;;;;25.85;14.50;;;;;;;4.67;71.74;92248.34;2071391;69;20294;-79
2022/11/20 07:36:55;;;;;;;30.52;14.45;;;;;;;4.51;72.70;92248.59;2071588;69;20604;-78
2022/11/20 07:39:21;;;;;;;30.35;15.73;;;;;;;4.64;72.01;92253.03;2071307;69;20136;-78
2022/11/20 07:41:46;;;;;;;32.40;17.60;;;;;;;4.69;72.14;92252.03;2071406;69;20235;-78
2022/11/20 07:44:12;;;;;;;32.83;16.45;;;;;;;4.74;72.35;92258.66;2071268;69;20140;-78
2022/11/20 07:46:37;;;;;;;21.08;10.73;;;;;;;4.73;72.22;92252.34;2071644;69;20584;-78
2022/11/20 07:49:03;;;;;;;21.67;10.30;;;;;;;4.69;72.42;92249.25;2071735;69;20139;-77
2022/11/20 07:51:29;;;;;;;17.55;10.20;;;;;;;4.57;73.45;92251.13;2071836;69;20159;-80
2022/11/20 07:53:54;;;;;;;19.10;10.00;;;;;;;4.85;72.20;92252.50;2071930;69;20381;-76
2022/11/20 07:56:21;;;;;;;18.08;9.77;;;;;;;5.04;71.69;92254.56;2068544;69;20152;-78
2022/11/20 07:58:47;;;;;;;24.30;11.75;;;;;;;5.17;71.54;92258.97;2071862;69;20253;-78
2022/11/20 08:01:12;;;;;;;21.08;13.05;;;;;;;5.15;71.24;92261.63;2068340;69;20144;-77
2022/11/20 08:03:38;;;;;;;21.77;12.35;;;;;;;5.18;71.09;92266.03;2071861;69;20202;-77
2022/11/20 08:06:04;;;;;;;20.38;11.63;;;;;;;4.69;73.58;92263.19;2071657;69;20634;-78
2022/11/20 08:08:30;;;;;;;14.27;9.10;;;;;;;4.87;72.76;92274.22;2071730;69;20144;-77
2022/11/20 08:16:27;;;;;;;15.70;8.52;;;;;;;5.39;71.65;92290.59;2071646;69;20159;-77
2022/11/20 08:18:53;;;;;;;15.45;8.93;;;;;;;5.44;70.85;92284.69;2068297;69;20162;-78
2022/11/20 08:21:20;;;;;;;19.58;9.27;;;;;;;5.52;70.87;92292.94;2071804;69;20152;-78
2022/11/20 08:23:46;;;;;;;20.25;11.25;;;;;;;5.16;72.15;92286.16;2071914;69;20174;-77
2022/11/20 08:26:11;;;;;;;18.63;11.18;;;;;;;5.31;71.63;92297.06;2068260;69;20483;-78
2022/11/20 08:28:37;;;;;;;18.73;10.63;;;;;;;5.31;71.80;92288.69;2071833;69;20136;-77
2022/11/20 08:31:03;;;;;;;20.88;10.80;;;;;;;5.72;70.35;92293.66;2071516;69;20561;-77
2022/11/20 08:33:32;;;;;;;19.35;10.00;;;;;;;5.93;69.23;92285.44;2071780;69;20132;-77
2022/11/20 08:36:02;;;;;;;19.10;10.38;;;;;;;6.06;69.34;92293.34;2071643;69;20243;-77
2022/11/20 08:38:27;;;;;;;15.98;8.80;;;;;;;5.83;68.44;92285.41;2071625;69;20508;-78
2022/11/20 08:43:40;;;;;;;15.73;8.43;;;;;;;6.06;69.36;92284.97;2068817;69;20172;-78
2022/11/20 08:46:06;;;;;;;16.33;8.40;;;;;;;6.06;68.66;92287.75;2071520;69;20147;-78
2022/11/20 08:48:32;;;;;;;18.52;9.35;;;;;;;5.87;68.63;92293.34;2071713;69;20152;-77
2022/11/20 08:50:59;;;;;;;26.38;14.75;;;;;;;5.49;70.21;92289.25;2071660;69;20152;-77
2022/11/20 08:53:25;;;;;;;30.58;15.70;;;;;;;5.75;70.17;92292.47;2071781;69;20195;-77
2022/11/20 08:55:50;;;;;;;25.42;14.35;;;;;;;6.21;68.38;92286.69;2071602;69;20136;-77
2022/11/20 08:58:16;;;;;;;26.67;14.25;;;;;;;6.42;68.06;92282.50;2071647;69;20140;-77
2022/11/20 09:00:42;;;;;;;23.20;12.43;;;;;;;5.68;69.19;92276.59;2071688;69;20315;-78
2022/11/20 09:03:07;;;;;;;21.75;11.45;;;;;;;6.13;68.63;92279.78;2071228;69;20614;-78
2022/11/20 09:05:33;;;;;;;37.58;21.25;;;;;;;6.28;67.99;92282.25;2071538;69;20240;-77
2022/11/20 09:07:59;;;;;;;27.33;14.00;;;;;;;6.51;67.11;92290.84;2071564;69;20168;-77
2022/11/20 09:10:28;;;;;;;26.23;14.25;;;;;;;6.49;66.71;92287.91;2071557;69;20586;-78
2022/11/20 09:12:57;;;;;;;20.27;10.45;;;;;;;6.54;67.19;92286.13;2071565;69;20135;-77
2022/11/20 09:15:24;;;;;;;18.55;10.10;;;;;;;6.38;66.53;92296.22;2071555;69;20500;-77
2022/11/20 09:17:53;;;;;;;18.38;10.15;;;;;;;6.33;66.68;92290.31;2071532;69;20207;-79
2022/11/20 09:20:18;;;;;;;18.85;10.40;;;;;;;6.54;66.31;92295.25;2071609;69;20588;-78
2022/11/20 09:22:44;;;;;;;17.40;9.57;;;;;;;6.73;65.80;92291.63;2071699;69;20167;-79
2022/11/20 09:25:10;;;;;;;14.13;8.57;;;;;;;6.86;65.07;92293.91;2071512;69;20565;-78
2022/11/20 09:27:35;;;;;;;16.70;10.02;;;;;;;7.05;65.64;92290.28;2071546;69;20144;-82
2022/11/20 09:30:02;;;;;;;15.15;9.20;;;;;;;7.04;64.67;92288.09;2071538;69;20156;-80
2022/11/20 09:32:28;;;;;;;12.55;7.55;;;;;;;7.02;63.69;92290.75;2071508;69;20230;-76
2022/11/20 09:34:53;;;;;;;13.70;6.93;;;;;;;7.07;63.49;92301.63;2071517;69;20220;-77
2022/11/20 09:37:19;;;;;;;12.02;6.97;;;;;;;7.03;63.21;92309.00;2071513;69;20472;-77
2022/11/20 09:39:46;;;;;;;17.83;8.93;;;;;;;7.08;62.81;92299.56;2071540;69;20567;-77
2022/11/20 09:42:27;;;;;;;19.13;10.52;;;;;;;7.17;63.33;92309.22;2071543;69;20136;-77
2022/11/20 09:45:16;;;;;;;30.52;15.85;;;;;;;6.61;64.70;92308.31;2071507;69;20152;-78
2022/11/20 09:48:09;;;;;;;17.98;10.35;;;;;;;6.45;65.75;92312.06;2071300;69;20565;-78
2022/11/20 09:50:55;;;;;;;15.55;8.25;;;;;;;6.99;64.04;92309.47;2071349;69;20243;-77
2022/11/20 09:53:57;;;;;;;14.48;8.20;;;;;;;7.28;63.80;92305.75;2071953;69;20652;-78
2022/11/20 09:56:23;;;;;;;12.93;7.07;;;;;;;7.46;63.50;92295.75;2071585;69;20175;-78
2022/11/20 09:58:51;;;;;;;14.38;7.50;;;;;;;7.45;62.71;92297.09;2071370;69;20489;-78
2022/11/20 10:01:19;;;;;;;13.82;8.15;;;;;;;7.61;63.02;92283.44;2071440;69;20145;-78
2022/11/20 10:03:54;;;;;;;18.75;8.90;;;;;;;7.74;62.46;92274.44;2071499;69;20201;-78
2022/11/20 10:06:31;;;;;;;14.15;8.30;;;;;;;7.89;62.95;92273.31;2071489;69;20576;-78
2022/11/20 10:08:59;;;;;;;12.65;7.68;;;;;;;8.09;62.18;92266.16;2071280;69;20231;-78
2022/11/20 10:11:37;;;;;;;12.43;7.68;;;;;;;8.03;60.88;92271.41;2071430;69;20191;-78
2022/11/20 10:14:24;;;;;;;15.80;8.50;;;;;;;8.42;61.55;92268.19;2071462;69;20160;-78
2022/11/20 10:17:10;;;;;;;11.15;6.28;;;;;;;8.67;60.13;92270.44;2071301;69;20223;-78
2022/11/20 10:19:45;;;;;;;7.28;3.53;;;;;;;8.78;58.12;92269.69;2071445;69;20128;-78
2022/11/20 10:22:32;;;;;;;6.28;3.33;;;;;;;8.66;56.91;92271.78;2071436;69;20152;-78
2022/11/20 10:25:40;;;;;;;7.53;5.05;;;;;;;8.49;57.90;92269.31;2071372;69;20631;-78
2022/11/20 10:28:19;;;;;;;18.65;10.38;;;;;;;8.19;60.63;92268.13;2066032;69;20188;-77
2022/11/20 10:30:48;;;;;;;17.75;10.27;;;;;;;8.60;59.91;92263.69;2071572;69;20164;-79
2022/11/20 10:33:21;;;;;;;14.55;9.15;;;;;;;7.78;61.62;92259.97;2071298;69;20318;-78
2022/11/20 10:36:00;;;;;;;16.92;9.13;;;;;;;7.64;62.23;92259.78;2071451;69;20148;-80
2022/11/20 10:38:34;;;;;;;13.85;8.18;;;;;;;8.51;61.44;92270.16;2068115;69;20492;-78
2022/11/20 10:43:54;;;;;;;13.35;8.18;;;;;;;8.75;59.32;92259.69;2071371;69;20228;-76
2022/11/20 10:46:23;;;;;;;16.77;8.98;;;;;;;8.78;59.38;92243.69;2071278;69;20178;-77
2022/11/20 10:48:50;;;;;;;17.25;9.60;;;;;;;8.91;60.00;92241.00;2071215;69;20457;-78
2022/11/20 10:51:39;;;;;;;16.85;9.38;;;;;;;8.91;59.08;92237.47;2068065;69;20159;-78
2022/11/20 10:54:23;;;;;;;15.82;9.02;;;;;;;9.04;59.63;92244.53;2071302;69;20554;-78
2022/11/20 10:56:50;;;;;;;17.27;9.27;;;;;;;9.26;59.64;92245.13;2071338;69;20140;-75
2022/11/20 10:59:37;;;;;;;14.45;7.05;;;;;;;9.10;56.94;92240.00;2071344;69;20159;-75
2022/11/20 11:02:24;;;;;;;10.27;6.05;;;;;;;9.13;56.51;92233.16;2071237;69;20144;-77
2022/11/20 11:04:52;;;;;;;12.45;6.90;;;;;;;9.09;55.89;92235.75;2071302;69;20171;-76
2022/11/20 11:07:23;;;;;;;13.73;5.97;;;;;;;9.04;56.77;92234.03;2071348;69;20208;-78
2022/11/20 11:09:55;;;;;;;13.70;7.90;;;;;;;8.36;59.15;92232.09;2071411;69;20231;-78
2022/11/20 11:12:23;;;;;;;;;;;;;;;7.66;60.63;92223.53;2071398;69;20549;-75
2022/11/20 11:14:51;;;;;;;15.10;8.02;;;;;;;7.58;61.76;92215.31;2071312;69;20045;-76
2022/11/20 11:17:35;;;;;;;13.27;7.50;;;;;;;7.58;62.35;92220.19;2071193;69;20152;-77
2022/11/20 11:20:16;;;;;;;11.50;7.20;;;;;;;8.29;60.20;92215.47;2071648;69;20154;-78
2022/11/20 11:22:57;;;;;;;12.48;7.60;;;;;;;8.65;59.46;92217.72;2071814;69;20598;-80
2022/11/20 11:25:30;;;;;;;11.77;7.30;;;;;;;8.80;58.79;92224.19;2071800;69;20210;-78
2022/11/20 11:28:04;;;;;;;10.57;6.78;;;;;;;8.86;58.99;92219.66;2071740;69;20140;-78
2022/11/20 11:30:42;;;;;;;12.15;6.72;;;;;;;8.61;58.84;92211.13;2071707;69;20473;-77
2022/11/20 11:33:19;;;;;;;12.80;7.45;;;;;;;8.83;58.92;92214.53;2071608;69;20140;-78
2022/11/20 11:35:58;;;;;;;13.70;8.55;;;;;;;8.88;58.76;92214.16;2071831;69;20160;-77
2022/11/20 11:38:41;;;;;;;16.92;8.98;;;;;;;9.06;58.21;92205.34;2071708;69;20132;-77
2022/11/20 11:41:09;;;;;;;;;;;;;;;8.75;58.46;92205.63;2071869;69;20148;-76
2022/11/20 11:46:35;;;;;;;10.43;6.30;;;;;;;8.54;59.13;92204.44;2071865;69;20152;-76
2022/11/20 11:49:03;;;;;;;8.68;5.20;;;;;;;8.42;58.39;92200.88;2071643;69;20148;-77
2022/11/20 11:51:47;;;;;;;9.70;5.40;;;;;;;8.63;57.81;92191.63;2071702;69;20156;-77
2022/11/20 11:54:21;;;;;;;12.90;6.50;;;;;;;8.59;57.73;92183.69;2071831;69;20231;-76
2022/11/20 11:56:48;;;;;;;9.73;6.47;;;;;;;8.85;56.78;92186.59;2071738;69;20133;-77
2022/11/20 11:59:43;;;;;;;15.73;8.25;;;;;;;8.91;57.22;92181.34;2071825;69;20148;-76
2022/11/20 12:02:32;;;;;;;13.05;8.52;;;;;;;8.66;57.65;92170.75;2071605;69;20256;-76